Addicks Barker, Texas
Current Conditions -  °F | °C
As of 5:35 PM on Friday 19 Dec 2014 (Local Time) from KTME Reporting Station
Overcast Overcast  
Wind Chill: 57°   Ceiling: 1500
Heat Index: 57°   Visibility: 10mi
Dew Point: 54°   Wind: 10mph
Humidity: 88%   Direction: 10°N
Pressure: 30.07"   Gusts: NA
Location:  29.8301°N, 95.6661°W
Report Text: KTME 192335Z AUTO 01009KT 10SM OVC015 14/12 A3007 RMK AO2
Loading
Personal Weather Stations






























Interactive Weather Map New forecast layout! Learn more

10-Day Weather Forecast

Advertisements
Track Severe Weather on mobile